createdAt,value
2023-01-27T00:02:28.535Z,1.34
2023-01-27T00:07:31.259Z,1.31
2023-01-27T00:12:52.656Z,1.36
2023-01-27T00:17:55.424Z,1.34
2023-01-27T00:23:15.583Z,1.35
2023-01-27T00:28:23.073Z,1.28
2023-01-27T00:33:28.599Z,1.31
2023-01-27T00:38:32.708Z,1.28
2023-01-27T00:43:36.772Z,1.27
2023-01-27T00:48:39.511Z,1.27
2023-01-27T00:53:42.361Z,1.29
2023-01-27T00:58:47.353Z,1.28
2023-01-27T01:03:50.090Z,1.29
2023-01-27T01:08:52.872Z,1.32
2023-01-27T01:13:58.969Z,1.30
2023-01-27T01:19:01.820Z,1.29
2023-01-27T01:24:04.756Z,1.26
2023-01-27T01:29:08.827Z,1.34
2023-01-27T01:34:11.521Z,1.35
2023-01-27T01:39:14.236Z,1.38
2023-01-27T01:44:23.032Z,1.37
2023-01-27T01:49:29.229Z,1.41
2023-01-27T01:54:35.660Z,1.44
2023-01-27T01:59:42.534Z,1.44
2023-01-27T02:04:48.513Z,1.45
2023-01-27T02:09:51.345Z,1.52
2023-01-27T02:14:55.724Z,1.54
2023-01-27T02:20:04.477Z,1.53
2023-01-27T02:25:12.847Z,1.59
2023-01-27T02:30:17.975Z,1.60
2023-01-27T02:35:23.483Z,1.56
2023-01-27T02:40:26.964Z,1.60
2023-01-27T02:45:31.326Z,1.60
2023-01-27T02:50:35.461Z,1.61
2023-01-27T02:55:39.068Z,1.68
2023-01-27T03:00:45.759Z,1.69
2023-01-27T03:05:50.851Z,1.65
2023-01-27T03:10:54.296Z,1.68
2023-01-27T03:16:18.357Z,1.71
2023-01-27T03:21:21.183Z,1.68
2023-01-27T03:26:24.942Z,1.68
2023-01-27T03:31:33.106Z,1.69
2023-01-27T03:36:55.843Z,1.68
2023-01-27T03:42:17.042Z,1.71
2023-01-27T03:47:24.020Z,1.71
2023-01-27T03:52:26.839Z,1.73
2023-01-27T03:57:29.601Z,1.73
2023-01-27T04:02:53.252Z,1.72
2023-01-27T04:07:56.079Z,1.77
2023-01-27T04:12:58.822Z,1.79
2023-01-27T04:18:03.190Z,1.83
2023-01-27T04:23:05.994Z,1.86
2023-01-27T04:28:08.782Z,1.87
2023-01-27T04:33:15.207Z,1.87
2023-01-27T04:38:17.911Z,1.93
2023-01-27T04:43:20.599Z,1.88
2023-01-27T04:48:24.850Z,1.88
2023-01-27T04:53:27.588Z,1.96
2023-01-27T04:58:30.417Z,1.96
2023-01-27T05:03:34.533Z,1.96
2023-01-27T05:08:37.374Z,2.02
2023-01-27T05:13:41.220Z,2.02
2023-01-27T05:18:48.573Z,2.03
2023-01-27T05:23:51.665Z,2.05
2023-01-27T05:28:55.404Z,2.09
2023-01-27T05:34:00.696Z,2.09
2023-01-27T05:39:03.569Z,2.11
2023-01-27T05:44:06.749Z,2.15
2023-01-27T05:49:10.884Z,2.17
2023-01-27T05:54:13.648Z,2.17
2023-01-27T05:59:16.667Z,2.17
2023-01-27T06:04:20.853Z,2.20
2023-01-27T06:09:23.615Z,2.21
2023-01-27T06:14:26.640Z,2.24
2023-01-27T06:19:30.809Z,2.28
2023-01-27T06:24:33.586Z,2.34
2023-01-27T06:29:36.382Z,2.35
2023-01-27T06:34:41.070Z,2.41
2023-01-27T06:39:43.848Z,2.44
2023-01-27T06:44:46.622Z,2.45
2023-01-27T06:49:50.746Z,2.47
2023-01-27T06:54:53.531Z,2.50
2023-01-27T06:59:56.481Z,2.50
2023-01-27T07:05:00.608Z,2.52
2023-01-27T07:10:03.443Z,2.56
2023-01-27T07:15:07.222Z,2.56
2023-01-27T07:20:14.310Z,2.59
2023-01-27T07:25:17.344Z,2.60
2023-01-27T07:30:20.263Z,2.62
2023-01-27T07:35:24.448Z,2.82
2023-01-27T07:40:27.264Z,2.99
2023-01-27T07:45:30.518Z,2.88
2023-01-27T07:50:34.697Z,2.81
2023-01-27T07:55:37.464Z,2.77
2023-01-27T08:00:40.345Z,2.76
2023-01-27T08:05:44.520Z,2.79
2023-01-27T08:10:49.341Z,2.83
2023-01-27T08:15:56.847Z,2.85
2023-01-27T08:21:02.482Z,2.91
2023-01-27T08:26:07.092Z,2.94
2023-01-27T08:31:11.743Z,2.99
2023-01-27T08:36:17.231Z,3.01
2023-01-27T08:41:22.102Z,3.00
2023-01-27T08:46:25.102Z,3.02
2023-01-27T08:51:29.319Z,3.04
2023-01-27T08:56:32.106Z,3.08
2023-01-27T09:01:34.914Z,3.13
2023-01-27T09:06:39.019Z,3.17
2023-01-27T09:11:43.218Z,3.19
2023-01-27T09:16:45.968Z,3.23
2023-01-27T09:21:50.089Z,3.22
2023-01-27T09:26:52.838Z,3.30
2023-01-27T09:31:55.634Z,3.31
2023-01-27T09:37:03.007Z,3.27
2023-01-27T09:42:18.739Z,3.31
2023-01-27T09:47:30.875Z,3.34
2023-01-27T09:52:48.235Z,3.35
2023-01-27T09:57:57.397Z,3.35
2023-01-27T10:03:09.748Z,3.32
2023-01-27T10:08:25.575Z,3.48
2023-01-27T10:13:34.313Z,3.45
2023-01-27T10:19:02.276Z,3.56
2023-01-27T10:24:12.559Z,3.67
2023-01-27T10:29:22.112Z,3.73
2023-01-27T10:34:29.191Z,3.82
2023-01-27T10:39:39.955Z,3.64
2023-01-27T10:45:01.545Z,3.69
2023-01-27T10:50:07.358Z,3.85
2023-01-27T10:55:17.655Z,4.04
2023-01-27T11:05:54.509Z,4.05
2023-01-27T11:11:19.616Z,4.06
2023-01-27T11:16:23.851Z,3.90
2023-01-27T11:21:27.961Z,3.79
2023-01-27T11:26:37.864Z,3.83
2023-01-27T11:31:45.954Z,3.84
2023-01-27T11:36:50.181Z,3.79
2023-01-27T11:41:55.676Z,3.79
2023-01-27T11:46:58.539Z,3.78
2023-01-27T11:52:05.755Z,3.86
2023-01-27T11:57:18.306Z,3.81
2023-01-27T12:02:26.733Z,3.77
2023-01-27T12:07:40.818Z,3.67
2023-01-27T12:12:45.616Z,3.71
2023-01-27T12:17:50.016Z,3.70
2023-01-27T12:22:54.378Z,3.67
2023-01-27T12:28:01.298Z,3.80
2023-01-27T12:33:12.989Z,3.82
2023-01-27T12:38:18.490Z,3.90
2023-01-27T12:43:22.732Z,3.70
2023-01-27T12:48:25.592Z,3.68
2023-01-27T12:53:28.833Z,3.65
2023-01-27T12:58:35.636Z,3.74
2023-01-27T13:03:40.297Z,3.74
2023-01-27T13:08:44.535Z,3.59
2023-01-27T13:13:52.087Z,3.63
2023-01-27T13:18:56.660Z,3.61
2023-01-27T13:24:00.534Z,3.70
2023-01-27T13:29:11.281Z,3.69
2023-01-27T13:34:18.871Z,3.79
2023-01-27T13:39:28.371Z,3.86
2023-01-27T13:44:38.682Z,3.80
2023-01-27T13:49:44.758Z,3.79
2023-01-27T13:54:47.340Z,3.90
2023-01-27T14:00:01.229Z,3.93
2023-01-27T14:05:27.677Z,3.95
2023-01-27T14:10:35.338Z,3.86
2023-01-27T14:15:43.963Z,3.83
2023-01-27T14:21:06.298Z,3.81
2023-01-27T14:26:18.072Z,3.69
2023-01-27T14:31:24.479Z,3.69
2023-01-27T14:36:31.848Z,3.71
2023-01-27T14:41:39.648Z,3.72
2023-01-27T14:46:57.789Z,3.68
2023-01-27T14:52:05.677Z,3.59
2023-01-27T14:57:18.048Z,3.69
2023-01-27T15:02:38.255Z,3.69
2023-01-27T15:07:46.185Z,3.56
2023-01-27T15:13:03.253Z,3.66
2023-01-27T15:18:20.548Z,3.67
2023-01-27T15:23:40.409Z,3.54
2023-01-27T15:28:43.774Z,3.49
2023-01-27T15:33:52.237Z,3.25
2023-01-27T15:39:25.972Z,3.37
2023-01-27T15:44:40.620Z,3.31
2023-01-27T15:49:48.182Z,3.28
2023-01-27T15:54:52.829Z,3.34
2023-01-27T15:59:59.476Z,3.31
2023-01-27T16:05:15.560Z,3.24
2023-01-27T16:10:20.883Z,3.10
2023-01-27T16:15:35.114Z,3.08
2023-01-27T16:20:44.720Z,3.15
2023-01-27T16:25:50.518Z,3.11
2023-01-27T16:31:02.552Z,3.11
2023-01-27T16:36:09.029Z,3.05
2023-01-27T16:41:18.884Z,3.05
2023-01-27T16:46:29.946Z,2.95
2023-01-27T16:51:35.058Z,3.07
2023-01-27T16:56:38.439Z,2.93
2023-01-27T17:01:43.404Z,2.96
2023-01-27T17:06:47.602Z,2.93
2023-01-27T17:11:50.666Z,2.87
2023-01-27T17:16:53.751Z,2.86
2023-01-27T17:21:59.756Z,2.90
2023-01-27T17:27:05.004Z,2.84
2023-01-27T17:32:19.701Z,2.85
2023-01-27T17:37:24.939Z,2.78
2023-01-27T17:42:31.068Z,2.66
2023-01-27T17:47:34.058Z,2.69
2023-01-27T17:52:41.167Z,2.71
2023-01-27T17:57:47.017Z,2.53
2023-01-27T18:02:52.457Z,2.74
2023-01-27T18:07:56.699Z,2.69
2023-01-27T18:13:13.360Z,2.56
2023-01-27T18:18:24.917Z,2.64
2023-01-27T18:23:31.999Z,2.55
2023-01-27T18:28:37.313Z,2.55
2023-01-27T18:33:42.241Z,2.58
2023-01-27T18:38:49.894Z,2.54
2023-01-27T18:43:53.548Z,2.41
2023-01-27T18:48:56.537Z,2.26
2023-01-27T18:54:00.583Z,2.45
2023-01-27T18:59:03.311Z,2.43
2023-01-27T19:04:09.731Z,2.46
2023-01-27T19:09:14.576Z,2.44
2023-01-27T19:14:17.511Z,2.44
2023-01-27T19:19:21.199Z,2.41
2023-01-27T19:24:25.336Z,2.42
2023-01-27T19:29:28.204Z,2.33
2023-01-27T19:34:30.944Z,2.44
2023-01-27T19:39:35.081Z,2.50
2023-01-27T19:44:37.925Z,2.36
2023-01-27T19:49:40.996Z,2.30
2023-01-27T19:54:45.123Z,2.35
2023-01-27T19:59:47.932Z,2.44
2023-01-27T20:04:50.683Z,2.28
2023-01-27T20:09:54.821Z,2.23
2023-01-27T20:14:57.546Z,2.17
2023-01-27T20:20:00.262Z,2.05
2023-01-27T20:25:04.871Z,1.99
2023-01-27T20:30:09.343Z,1.96
2023-01-27T20:35:14.556Z,2.00
2023-01-27T20:40:20.425Z,1.94
2023-01-27T20:45:23.842Z,1.95
2023-01-27T20:50:26.594Z,1.88
2023-01-27T20:55:32.773Z,1.88
2023-01-27T21:00:35.672Z,1.84
2023-01-27T21:05:44.377Z,1.81
2023-01-27T21:10:48.679Z,1.78
2023-01-27T21:15:52.458Z,1.75
2023-01-27T21:20:56.988Z,1.62
2023-01-27T21:26:06.045Z,1.68
2023-01-27T21:31:09.803Z,1.60
2023-01-27T21:36:13.370Z,1.52
2023-01-27T21:41:45.744Z,1.63
2023-01-27T21:46:48.538Z,1.69
2023-01-27T21:51:51.374Z,1.75
2023-01-27T21:56:55.654Z,1.68
2023-01-27T22:01:58.413Z,1.56
2023-01-27T22:07:01.227Z,1.60
2023-01-27T22:12:06.394Z,1.64
2023-01-27T22:17:10.164Z,1.72
2023-01-27T22:22:14.093Z,1.52
2023-01-27T22:27:18.267Z,1.61
2023-01-27T22:32:21.037Z,1.52
2023-01-27T22:37:23.808Z,1.37
2023-01-27T22:42:27.974Z,1.55
2023-01-27T22:47:30.920Z,1.51
2023-01-27T22:52:35.959Z,1.35
2023-01-27T22:57:40.115Z,1.35
2023-01-27T23:02:42.890Z,1.47
2023-01-27T23:07:47.516Z,1.28
2023-01-27T23:12:51.738Z,1.47
2023-01-27T23:17:54.637Z,1.39
2023-01-27T23:22:57.460Z,1.50
2023-01-27T23:28:01.740Z,1.51
2023-01-27T23:33:04.763Z,1.09
2023-01-27T23:38:16.400Z,1.33
2023-01-27T23:43:27.020Z,1.37
2023-01-27T23:48:30.091Z,1.22
2023-01-27T23:53:32.886Z,1.22
2023-01-27T23:58:37.071Z,1.21
